sensor_id;sensor_type;location;lat;lon;timestamp;P1;durP1;ratioP1;P2;durP2;ratioP2
18720;SDS011;9489;50.948;3.114;2023-02-28T00:00:17;9.97;;;6.17;;
18720;SDS011;9489;50.948;3.114;2023-02-28T00:02:44;6.50;;;5.97;;
18720;SDS011;9489;50.948;3.114;2023-02-28T00:05:11;9.13;;;6.03;;
18720;SDS011;9489;50.948;3.114;2023-02-28T00:07:39;6.60;;;5.53;;
18720;SDS011;9489;50.948;3.114;2023-02-28T00:10:05;7.03;;;6.07;;
18720;SDS011;9489;50.948;3.114;2023-02-28T00:12:33;7.30;;;6.67;;
18720;SDS011;9489;50.948;3.114;2023-02-28T00:14:59;6.53;;;5.83;;
18720;SDS011;9489;50.948;3.114;2023-02-28T00:17:25;6.67;;;6.07;;
18720;SDS011;9489;50.948;3.114;2023-02-28T00:19:50;6.50;;;5.83;;
18720;SDS011;9489;50.948;3.114;2023-02-28T00:22:17;8.07;;;6.30;;
18720;SDS011;9489;50.948;3.114;2023-02-28T00:24:45;7.30;;;6.00;;
18720;SDS011;9489;50.948;3.114;2023-02-28T00:27:11;8.80;;;6.70;;
18720;SDS011;9489;50.948;3.114;2023-02-28T00:29:37;6.87;;;6.20;;
18720;SDS011;9489;50.948;3.114;2023-02-28T00:32:04;8.70;;;7.23;;
18720;SDS011;9489;50.948;3.114;2023-02-28T00:34:30;9.20;;;7.10;;
18720;SDS011;9489;50.948;3.114;2023-02-28T00:36:56;9.90;;;7.53;;
18720;SDS011;9489;50.948;3.114;2023-02-28T00:39:22;7.60;;;6.90;;
18720;SDS011;9489;50.948;3.114;2023-02-28T00:41:47;7.97;;;6.57;;
18720;SDS011;9489;50.948;3.114;2023-02-28T00:44:13;23.83;;;8.13;;
18720;SDS011;9489;50.948;3.114;2023-02-28T00:46:38;7.77;;;6.70;;
18720;SDS011;9489;50.948;3.114;2023-02-28T00:49:04;7.33;;;6.63;;
18720;SDS011;9489;50.948;3.114;2023-02-28T00:51:30;8.00;;;7.27;;
18720;SDS011;9489;50.948;3.114;2023-02-28T00:53:55;8.13;;;7.30;;
18720;SDS011;9489;50.948;3.114;2023-02-28T00:56:21;8.10;;;7.33;;
18720;SDS011;9489;50.948;3.114;2023-02-28T00:58:47;7.90;;;7.10;;
18720;SDS011;9489;50.948;3.114;2023-02-28T01:01:12;8.30;;;7.50;;
18720;SDS011;9489;50.948;3.114;2023-02-28T01:03:38;8.03;;;7.23;;
18720;SDS011;9489;50.948;3.114;2023-02-28T01:06:04;8.87;;;7.67;;
18720;SDS011;9489;50.948;3.114;2023-02-28T01:08:30;8.50;;;7.70;;
18720;SDS011;9489;50.948;3.114;2023-02-28T01:10:55;8.10;;;7.30;;
18720;SDS011;9489;50.948;3.114;2023-02-28T01:13:22;8.97;;;8.03;;
18720;SDS011;9489;50.948;3.114;2023-02-28T01:15:52;7.50;;;6.87;;
18720;SDS011;9489;50.948;3.114;2023-02-28T01:18:20;8.03;;;7.13;;
18720;SDS011;9489;50.948;3.114;2023-02-28T01:20:47;8.60;;;7.60;;
18720;SDS011;9489;50.948;3.114;2023-02-28T01:23:13;7.63;;;6.93;;
18720;SDS011;9489;50.948;3.114;2023-02-28T01:25:39;7.50;;;6.90;;
18720;SDS011;9489;50.948;3.114;2023-02-28T01:28:04;8.67;;;7.80;;
18720;SDS011;9489;50.948;3.114;2023-02-28T01:30:31;7.60;;;6.80;;
18720;SDS011;9489;50.948;3.114;2023-02-28T01:32:57;9.33;;;7.50;;
18720;SDS011;9489;50.948;3.114;2023-02-28T01:35:23;9.03;;;8.23;;
18720;SDS011;9489;50.948;3.114;2023-02-28T01:37:49;9.07;;;7.70;;
18720;SDS011;9489;50.948;3.114;2023-02-28T01:40:14;8.83;;;7.93;;
18720;SDS011;9489;50.948;3.114;2023-02-28T01:42:40;7.93;;;7.13;;
18720;SDS011;9489;50.948;3.114;2023-02-28T01:47:52;9.63;;;7.67;;
18720;SDS011;9489;50.948;3.114;2023-02-28T01:50:23;8.37;;;7.57;;
18720;SDS011;9489;50.948;3.114;2023-02-28T01:52:51;8.60;;;7.67;;
18720;SDS011;9489;50.948;3.114;2023-02-28T01:55:21;8.47;;;7.33;;
18720;SDS011;9489;50.948;3.114;2023-02-28T01:57:50;7.70;;;7.00;;
18720;SDS011;9489;50.948;3.114;2023-02-28T02:00:20;8.70;;;7.90;;
18720;SDS011;9489;50.948;3.114;2023-02-28T02:02:50;10.43;;;8.23;;
18720;SDS011;9489;50.948;3.114;2023-02-28T02:05:22;8.57;;;7.50;;
18720;SDS011;9489;50.948;3.114;2023-02-28T02:07:54;9.00;;;7.70;;
18720;SDS011;9489;50.948;3.114;2023-02-28T02:10:24;10.90;;;8.80;;
18720;SDS011;9489;50.948;3.114;2023-02-28T02:18:43;7.87;;;7.17;;
18720;SDS011;9489;50.948;3.114;2023-02-28T02:23:54;9.77;;;8.77;;
18720;SDS011;9489;50.948;3.114;2023-02-28T02:27:03;9.07;;;8.27;;
18720;SDS011;9489;50.948;3.114;2023-02-28T02:29:42;9.17;;;8.33;;
18720;SDS011;9489;50.948;3.114;2023-02-28T02:41:13;9.63;;;8.63;;
18720;SDS011;9489;50.948;3.114;2023-02-28T02:43:51;10.80;;;9.20;;
18720;SDS011;9489;50.948;3.114;2023-02-28T02:46:25;9.53;;;8.63;;
18720;SDS011;9489;50.948;3.114;2023-02-28T02:48:55;9.87;;;7.97;;
18720;SDS011;9489;50.948;3.114;2023-02-28T02:51:25;11.83;;;9.07;;
18720;SDS011;9489;50.948;3.114;2023-02-28T02:54:04;9.47;;;8.57;;
18720;SDS011;9489;50.948;3.114;2023-02-28T02:56:39;12.37;;;10.27;;
18720;SDS011;9489;50.948;3.114;2023-02-28T02:59:09;11.40;;;8.93;;
18720;SDS011;9489;50.948;3.114;2023-02-28T03:01:37;10.27;;;8.60;;
18720;SDS011;9489;50.948;3.114;2023-02-28T03:04:07;10.47;;;9.37;;
18720;SDS011;9489;50.948;3.114;2023-02-28T03:06:35;9.67;;;8.67;;
18720;SDS011;9489;50.948;3.114;2023-02-28T03:09:01;12.27;;;9.60;;
18720;SDS011;9489;50.948;3.114;2023-02-28T03:11:29;10.57;;;9.47;;
18720;SDS011;9489;50.948;3.114;2023-02-28T03:16:28;12.67;;;10.40;;
18720;SDS011;9489;50.948;3.114;2023-02-28T03:19:33;10.70;;;9.67;;
18720;SDS011;9489;50.948;3.114;2023-02-28T03:27:40;11.73;;;10.67;;
18720;SDS011;9489;50.948;3.114;2023-02-28T03:30:24;11.17;;;10.17;;
18720;SDS011;9489;50.948;3.114;2023-02-28T03:33:03;12.13;;;10.93;;
18720;SDS011;9489;50.948;3.114;2023-02-28T03:35:31;13.73;;;12.07;;
18720;SDS011;9489;50.948;3.114;2023-02-28T03:38:08;14.33;;;11.37;;
18720;SDS011;9489;50.948;3.114;2023-02-28T03:40:39;14.20;;;11.80;;
18720;SDS011;9489;50.948;3.114;2023-02-28T03:43:10;13.07;;;11.80;;
18720;SDS011;9489;50.948;3.114;2023-02-28T03:45:40;11.87;;;10.73;;
18720;SDS011;9489;50.948;3.114;2023-02-28T03:48:13;12.07;;;11.00;;
18720;SDS011;9489;50.948;3.114;2023-02-28T03:50:46;13.97;;;12.57;;
18720;SDS011;9489;50.948;3.114;2023-02-28T03:55:47;13.83;;;12.53;;
18720;SDS011;9489;50.948;3.114;2023-02-28T03:58:27;13.73;;;12.37;;
18720;SDS011;9489;50.948;3.114;2023-02-28T04:01:42;13.30;;;12.00;;
18720;SDS011;9489;50.948;3.114;2023-02-28T04:03:53;13.43;;;11.93;;
18720;SDS011;9489;50.948;3.114;2023-02-28T04:06:19;13.27;;;12.07;;
18720;SDS011;9489;50.948;3.114;2023-02-28T04:08:47;13.33;;;12.13;;
18720;SDS011;9489;50.948;3.114;2023-02-28T04:11:23;13.60;;;12.37;;
18720;SDS011;9489;50.948;3.114;2023-02-28T04:13:54;13.77;;;12.37;;
18720;SDS011;9489;50.948;3.114;2023-02-28T04:16:20;14.27;;;12.80;;
18720;SDS011;9489;50.948;3.114;2023-02-28T04:18:46;14.10;;;12.70;;
18720;SDS011;9489;50.948;3.114;2023-02-28T04:21:12;14.67;;;13.27;;
18720;SDS011;9489;50.948;3.114;2023-02-28T04:23:38;13.57;;;12.33;;
18720;SDS011;9489;50.948;3.114;2023-02-28T04:26:03;14.10;;;12.73;;
18720;SDS011;9489;50.948;3.114;2023-02-28T04:28:30;13.17;;;11.93;;
18720;SDS011;9489;50.948;3.114;2023-02-28T04:30:57;12.33;;;11.23;;
18720;SDS011;9489;50.948;3.114;2023-02-28T04:33:23;13.50;;;12.20;;
18720;SDS011;9489;50.948;3.114;2023-02-28T04:35:57;12.83;;;11.40;;
18720;SDS011;9489;50.948;3.114;2023-02-28T04:38:24;13.53;;;12.27;;
18720;SDS011;9489;50.948;3.114;2023-02-28T04:40:49;13.47;;;12.07;;
18720;SDS011;9489;50.948;3.114;2023-02-28T04:43:15;13.60;;;12.30;;
18720;SDS011;9489;50.948;3.114;2023-02-28T04:45:41;13.60;;;12.03;;
18720;SDS011;9489;50.948;3.114;2023-02-28T04:48:06;13.43;;;12.17;;
18720;SDS011;9489;50.948;3.114;2023-02-28T04:50:32;12.40;;;11.23;;
18720;SDS011;9489;50.948;3.114;2023-02-28T04:52:57;12.53;;;11.33;;
18720;SDS011;9489;50.948;3.114;2023-02-28T04:55:23;13.37;;;12.17;;
18720;SDS011;9489;50.948;3.114;2023-02-28T04:57:49;11.67;;;10.57;;
18720;SDS011;9489;50.948;3.114;2023-02-28T05:00:14;11.87;;;10.63;;
18720;SDS011;9489;50.948;3.114;2023-02-28T05:02:41;13.67;;;11.53;;
18720;SDS011;9489;50.948;3.114;2023-02-28T05:05:07;12.80;;;11.50;;
18720;SDS011;9489;50.948;3.114;2023-02-28T05:07:33;13.00;;;11.70;;
18720;SDS011;9489;50.948;3.114;2023-02-28T05:09:59;11.67;;;10.57;;
18720;SDS011;9489;50.948;3.114;2023-02-28T05:12:24;11.97;;;10.87;;
18720;SDS011;9489;50.948;3.114;2023-02-28T05:14:50;12.47;;;11.33;;
18720;SDS011;9489;50.948;3.114;2023-02-28T05:17:16;10.80;;;9.67;;
18720;SDS011;9489;50.948;3.114;2023-02-28T05:19:41;11.87;;;10.37;;
18720;SDS011;9489;50.948;3.114;2023-02-28T05:22:12;11.40;;;10.30;;
18720;SDS011;9489;50.948;3.114;2023-02-28T05:24:40;12.07;;;10.43;;
18720;SDS011;9489;50.948;3.114;2023-02-28T05:27:07;11.57;;;9.95;;
18720;SDS011;9489;50.948;3.114;2023-02-28T05:29:33;11.20;;;10.20;;
18720;SDS011;9489;50.948;3.114;2023-02-28T05:31:59;10.70;;;9.70;;
18720;SDS011;9489;50.948;3.114;2023-02-28T05:34:24;11.23;;;10.17;;
18720;SDS011;9489;50.948;3.114;2023-02-28T05:36:50;11.50;;;10.03;;
18720;SDS011;9489;50.948;3.114;2023-02-28T05:39:16;10.83;;;9.83;;
18720;SDS011;9489;50.948;3.114;2023-02-28T05:41:41;12.20;;;10.90;;
18720;SDS011;9489;50.948;3.114;2023-02-28T05:44:08;11.00;;;9.90;;
18720;SDS011;9489;50.948;3.114;2023-02-28T05:46:34;11.30;;;10.20;;
18720;SDS011;9489;50.948;3.114;2023-02-28T05:49:00;12.23;;;9.87;;
18720;SDS011;9489;50.948;3.114;2023-02-28T05:51:26;11.30;;;10.00;;
18720;SDS011;9489;50.948;3.114;2023-02-28T05:53:52;11.07;;;10.00;;
18720;SDS011;9489;50.948;3.114;2023-02-28T05:56:17;12.13;;;10.90;;
18720;SDS011;9489;50.948;3.114;2023-02-28T05:58:43;10.67;;;9.53;;
18720;SDS011;9489;50.948;3.114;2023-02-28T06:04:00;11.70;;;10.53;;
18720;SDS011;9489;50.948;3.114;2023-02-28T06:06:26;10.37;;;9.47;;
18720;SDS011;9489;50.948;3.114;2023-02-28T06:08:52;11.03;;;10.13;;
18720;SDS011;9489;50.948;3.114;2023-02-28T06:11:18;11.37;;;10.30;;
18720;SDS011;9489;50.948;3.114;2023-02-28T06:13:45;12.57;;;11.13;;
18720;SDS011;9489;50.948;3.114;2023-02-28T06:16:11;11.15;;;10.05;;
18720;SDS011;9489;50.948;3.114;2023-02-28T06:18:37;12.37;;;11.17;;
18720;SDS011;9489;50.948;3.114;2023-02-28T06:21:03;11.68;;;10.50;;
18720;SDS011;9489;50.948;3.114;2023-02-28T06:23:29;12.10;;;10.73;;
18720;SDS011;9489;50.948;3.114;2023-02-28T06:25:55;11.33;;;10.10;;
18720;SDS011;9489;50.948;3.114;2023-02-28T06:28:25;10.10;;;9.13;;
18720;SDS011;9489;50.948;3.114;2023-02-28T06:30:51;11.60;;;10.50;;
18720;SDS011;9489;50.948;3.114;2023-02-28T06:33:17;11.23;;;10.33;;
18720;SDS011;9489;50.948;3.114;2023-02-28T06:35:43;12.93;;;10.80;;
18720;SDS011;9489;50.948;3.114;2023-02-28T06:38:13;12.07;;;10.88;;
18720;SDS011;9489;50.948;3.114;2023-02-28T06:40:38;11.40;;;10.20;;
18720;SDS011;9489;50.948;3.114;2023-02-28T06:43:04;10.32;;;9.35;;
18720;SDS011;9489;50.948;3.114;2023-02-28T06:45:30;10.35;;;8.75;;
18720;SDS011;9489;50.948;3.114;2023-02-28T06:47:55;10.48;;;9.38;;
18720;SDS011;9489;50.948;3.114;2023-02-28T06:50:21;8.38;;;7.57;;
18720;SDS011;9489;50.948;3.114;2023-02-28T06:52:47;8.45;;;7.65;;
18720;SDS011;9489;50.948;3.114;2023-02-28T06:55:12;8.10;;;6.90;;
18720;SDS011;9489;50.948;3.114;2023-02-28T06:57:38;7.75;;;7.00;;
18720;SDS011;9489;50.948;3.114;2023-02-28T07:00:08;9.27;;;7.10;;
18720;SDS011;9489;50.948;3.114;2023-02-28T07:02:35;8.13;;;7.22;;
18720;SDS011;9489;50.948;3.114;2023-02-28T07:05:01;8.82;;;7.47;;
18720;SDS011;9489;50.948;3.114;2023-02-28T07:07:26;8.55;;;7.72;;
18720;SDS011;9489;50.948;3.114;2023-02-28T07:09:52;9.50;;;8.15;;
18720;SDS011;9489;50.948;3.114;2023-02-28T07:12:18;8.57;;;7.70;;
18720;SDS011;9489;50.948;3.114;2023-02-28T07:14:43;8.57;;;7.75;;
18720;SDS011;9489;50.948;3.114;2023-02-28T07:17:10;8.63;;;7.82;;
18720;SDS011;9489;50.948;3.114;2023-02-28T07:19:37;9.32;;;8.52;;
18720;SDS011;9489;50.948;3.114;2023-02-28T07:22:04;11.52;;;9.43;;
18720;SDS011;9489;50.948;3.114;2023-02-28T07:24:29;9.35;;;8.45;;
18720;SDS011;9489;50.948;3.114;2023-02-28T07:26:55;9.68;;;8.77;;
18720;SDS011;9489;50.948;3.114;2023-02-28T07:29:21;9.40;;;8.55;;
18720;SDS011;9489;50.948;3.114;2023-02-28T07:31:47;10.25;;;9.05;;
18720;SDS011;9489;50.948;3.114;2023-02-28T07:34:13;9.50;;;8.55;;
18720;SDS011;9489;50.948;3.114;2023-02-28T07:36:39;10.13;;;9.10;;
18720;SDS011;9489;50.948;3.114;2023-02-28T07:39:05;9.38;;;8.43;;
18720;SDS011;9489;50.948;3.114;2023-02-28T07:41:31;9.65;;;8.30;;
18720;SDS011;9489;50.948;3.114;2023-02-28T07:43:59;11.00;;;9.95;;
18720;SDS011;9489;50.948;3.114;2023-02-28T07:46:25;10.55;;;9.15;;
18720;SDS011;9489;50.948;3.114;2023-02-28T07:48:51;9.57;;;8.77;;
18720;SDS011;9489;50.948;3.114;2023-02-28T07:51:18;9.90;;;8.88;;
18720;SDS011;9489;50.948;3.114;2023-02-28T07:53:44;9.43;;;7.45;;
18720;SDS011;9489;50.948;3.114;2023-02-28T07:56:10;8.82;;;7.97;;
18720;SDS011;9489;50.948;3.114;2023-02-28T07:58:36;9.60;;;8.68;;
18720;SDS011;9489;50.948;3.114;2023-02-28T08:01:05;11.60;;;8.77;;
18720;SDS011;9489;50.948;3.114;2023-02-28T08:03:35;9.98;;;8.93;;
18720;SDS011;9489;50.948;3.114;2023-02-28T08:06:02;9.32;;;8.32;;
18720;SDS011;9489;50.948;3.114;2023-02-28T08:08:29;9.27;;;7.90;;
18720;SDS011;9489;50.948;3.114;2023-02-28T08:10:59;9.68;;;8.68;;
18720;SDS011;9489;50.948;3.114;2023-02-28T08:13:26;9.85;;;7.50;;
18720;SDS011;9489;50.948;3.114;2023-02-28T08:15:53;10.13;;;8.70;;
18720;SDS011;9489;50.948;3.114;2023-02-28T08:18:19;10.02;;;7.35;;
18720;SDS011;9489;50.948;3.114;2023-02-28T08:20:45;8.82;;;7.93;;
18720;SDS011;9489;50.948;3.114;2023-02-28T08:23:11;9.43;;;7.45;;
18720;SDS011;9489;50.948;3.114;2023-02-28T08:25:36;7.03;;;6.30;;
18720;SDS011;9489;50.948;3.114;2023-02-28T08:28:02;6.28;;;5.78;;
18720;SDS011;9489;50.948;3.114;2023-02-28T08:30:28;5.90;;;5.30;;
18720;SDS011;9489;50.948;3.114;2023-02-28T08:32:53;6.35;;;5.07;;
18720;SDS011;9489;50.948;3.114;2023-02-28T08:35:20;4.90;;;4.45;;
18720;SDS011;9489;50.948;3.114;2023-02-28T08:37:49;5.22;;;4.75;;
18720;SDS011;9489;50.948;3.114;2023-02-28T08:40:15;5.18;;;4.65;;
18720;SDS011;9489;50.948;3.114;2023-02-28T08:42:44;5.78;;;4.50;;
18720;SDS011;9489;50.948;3.114;2023-02-28T08:45:11;7.72;;;4.32;;
18720;SDS011;9489;50.948;3.114;2023-02-28T08:47:37;4.85;;;3.90;;
18720;SDS011;9489;50.948;3.114;2023-02-28T08:50:03;4.75;;;4.35;;
18720;SDS011;9489;50.948;3.114;2023-02-28T08:52:29;5.40;;;4.45;;
18720;SDS011;9489;50.948;3.114;2023-02-28T08:54:55;4.35;;;3.08;;
18720;SDS011;9489;50.948;3.114;2023-02-28T08:57:20;6.35;;;4.32;;
18720;SDS011;9489;50.948;3.114;2023-02-28T08:59:46;5.78;;;3.90;;
18720;SDS011;9489;50.948;3.114;2023-02-28T09:02:12;4.82;;;3.63;;
18720;SDS011;9489;50.948;3.114;2023-02-28T09:04:39;3.85;;;3.28;;
18720;SDS011;9489;50.948;3.114;2023-02-28T09:07:05;4.38;;;3.35;;
18720;SDS011;9489;50.948;3.114;2023-02-28T09:09:31;7.22;;;3.85;;
18720;SDS011;9489;50.948;3.114;2023-02-28T09:11:57;5.22;;;4.15;;
18720;SDS011;9489;50.948;3.114;2023-02-28T09:14:23;4.43;;;3.65;;
18720;SDS011;9489;50.948;3.114;2023-02-28T09:16:48;4.20;;;3.25;;
18720;SDS011;9489;50.948;3.114;2023-02-28T09:19:14;4.35;;;3.00;;
18720;SDS011;9489;50.948;3.114;2023-02-28T09:21:40;4.43;;;3.40;;
18720;SDS011;9489;50.948;3.114;2023-02-28T09:24:05;5.22;;;3.22;;
18720;SDS011;9489;50.948;3.114;2023-02-28T09:26:31;3.80;;;2.95;;
18720;SDS011;9489;50.948;3.114;2023-02-28T09:28:57;4.35;;;3.10;;
18720;SDS011;9489;50.948;3.114;2023-02-28T09:31:25;5.05;;;3.05;;
18720;SDS011;9489;50.948;3.114;2023-02-28T09:33:53;4.60;;;2.88;;
18720;SDS011;9489;50.948;3.114;2023-02-28T09:36:20;5.65;;;2.80;;
18720;SDS011;9489;50.948;3.114;2023-02-28T09:38:47;3.50;;;3.05;;
18720;SDS011;9489;50.948;3.114;2023-02-28T09:41:15;5.13;;;3.30;;
18720;SDS011;9489;50.948;3.114;2023-02-28T09:43:45;4.03;;;3.30;;
18720;SDS011;9489;50.948;3.114;2023-02-28T09:46:22;4.50;;;3.30;;
18720;SDS011;9489;50.948;3.114;2023-02-28T09:48:51;4.30;;;2.97;;
18720;SDS011;9489;50.948;3.114;2023-02-28T09:54:13;6.28;;;3.65;;
18720;SDS011;9489;50.948;3.114;2023-02-28T09:56:44;4.47;;;3.40;;
18720;SDS011;9489;50.948;3.114;2023-02-28T09:59:24;4.78;;;3.80;;
18720;SDS011;9489;50.948;3.114;2023-02-28T10:05:05;5.43;;;3.28;;
18720;SDS011;9489;50.948;3.114;2023-02-28T10:10:22;4.75;;;3.63;;
18720;SDS011;9489;50.948;3.114;2023-02-28T10:12:53;4.43;;;3.92;;
18720;SDS011;9489;50.948;3.114;2023-02-28T10:15:21;4.18;;;3.25;;
18720;SDS011;9489;50.948;3.114;2023-02-28T10:17:53;7.65;;;3.80;;
18720;SDS011;9489;50.948;3.114;2023-02-28T10:20:23;4.28;;;3.38;;
18720;SDS011;9489;50.948;3.114;2023-02-28T10:25:41;4.30;;;3.90;;
18720;SDS011;9489;50.948;3.114;2023-02-28T10:28:14;3.92;;;3.58;;
18720;SDS011;9489;50.948;3.114;2023-02-28T10:30:48;4.68;;;3.63;;
18720;SDS011;9489;50.948;3.114;2023-02-28T10:33:19;5.38;;;3.83;;
18720;SDS011;9489;50.948;3.114;2023-02-28T10:35:53;5.10;;;4.03;;
18720;SDS011;9489;50.948;3.114;2023-02-28T10:38:22;5.63;;;4.00;;
18720;SDS011;9489;50.948;3.114;2023-02-28T10:41:17;4.93;;;3.83;;
18720;SDS011;9489;50.948;3.114;2023-02-28T10:44:41;4.35;;;3.95;;
18720;SDS011;9489;50.948;3.114;2023-02-28T10:46:48;5.28;;;3.47;;
18720;SDS011;9489;50.948;3.114;2023-02-28T10:49:26;4.55;;;4.15;;
18720;SDS011;9489;50.948;3.114;2023-02-28T10:51:58;4.80;;;3.47;;
18720;SDS011;9489;50.948;3.114;2023-02-28T10:54:33;4.78;;;4.28;;
18720;SDS011;9489;50.948;3.114;2023-02-28T10:59:42;4.78;;;4.30;;
18720;SDS011;9489;50.948;3.114;2023-02-28T11:04:55;4.22;;;3.75;;
18720;SDS011;9489;50.948;3.114;2023-02-28T11:07:21;5.25;;;4.72;;
18720;SDS011;9489;50.948;3.114;2023-02-28T11:09:52;5.18;;;4.65;;
18720;SDS011;9489;50.948;3.114;2023-02-28T11:12:24;4.95;;;4.45;;
18720;SDS011;9489;50.948;3.114;2023-02-28T11:14:57;5.53;;;4.63;;
18720;SDS011;9489;50.948;3.114;2023-02-28T11:17:27;7.25;;;5.15;;
18720;SDS011;9489;50.948;3.114;2023-02-28T11:19:55;6.18;;;4.75;;
18720;SDS011;9489;50.948;3.114;2023-02-28T11:22:24;6.70;;;4.93;;
18720;SDS011;9489;50.948;3.114;2023-02-28T11:24:54;5.75;;;4.75;;
18720;SDS011;9489;50.948;3.114;2023-02-28T11:27:26;6.13;;;4.35;;
18720;SDS011;9489;50.948;3.114;2023-02-28T11:30:05;5.18;;;4.30;;
18720;SDS011;9489;50.948;3.114;2023-02-28T11:32:59;5.72;;;4.22;;
18720;SDS011;9489;50.948;3.114;2023-02-28T11:35:43;5.35;;;4.85;;
18720;SDS011;9489;50.948;3.114;2023-02-28T11:38:09;5.35;;;3.90;;
18720;SDS011;9489;50.948;3.114;2023-02-28T11:40:46;4.30;;;3.65;;
18720;SDS011;9489;50.948;3.114;2023-02-28T11:43:41;5.78;;;5.05;;
18720;SDS011;9489;50.948;3.114;2023-02-28T11:57:49;3.70;;;3.40;;
18720;SDS011;9489;50.948;3.114;2023-02-28T12:08:16;3.35;;;3.13;;
18720;SDS011;9489;50.948;3.114;2023-02-28T12:14:00;4.10;;;3.28;;
18720;SDS011;9489;50.948;3.114;2023-02-28T12:19:26;5.85;;;3.08;;
18720;SDS011;9489;50.948;3.114;2023-02-28T12:24:39;3.08;;;2.40;;
18720;SDS011;9489;50.948;3.114;2023-02-28T12:27:20;4.13;;;2.30;;
18720;SDS011;9489;50.948;3.114;2023-02-28T12:29:51;2.83;;;2.58;;
18720;SDS011;9489;50.948;3.114;2023-02-28T12:38:22;2.90;;;2.60;;
18720;SDS011;9489;50.948;3.114;2023-02-28T12:40:28;3.60;;;2.83;;
18720;SDS011;9489;50.948;3.114;2023-02-28T12:43:04;4.00;;;2.90;;
18720;SDS011;9489;50.948;3.114;2023-02-28T12:48:39;2.75;;;2.55;;
18720;SDS011;9489;50.948;3.114;2023-02-28T12:51:11;2.95;;;2.20;;
18720;SDS011;9489;50.948;3.114;2023-02-28T12:59:30;6.40;;;3.67;;
18720;SDS011;9489;50.948;3.114;2023-02-28T13:10:02;3.83;;;3.53;;
18720;SDS011;9489;50.948;3.114;2023-02-28T13:12:31;3.65;;;3.35;;
18720;SDS011;9489;50.948;3.114;2023-02-28T13:15:08;3.80;;;3.40;;
18720;SDS011;9489;50.948;3.114;2023-02-28T13:17:36;3.05;;;2.80;;
18720;SDS011;9489;50.948;3.114;2023-02-28T13:20:13;4.05;;;3.45;;
18720;SDS011;9489;50.948;3.114;2023-02-28T13:22:52;3.92;;;3.33;;
18720;SDS011;9489;50.948;3.114;2023-02-28T13:27:47;4.35;;;3.38;;
18720;SDS011;9489;50.948;3.114;2023-02-28T13:33:34;5.03;;;3.35;;
18720;SDS011;9489;50.948;3.114;2023-02-28T13:38:45;3.17;;;2.97;;
18720;SDS011;9489;50.948;3.114;2023-02-28T13:44:10;4.10;;;3.65;;
18720;SDS011;9489;50.948;3.114;2023-02-28T13:52:32;4.30;;;3.90;;
18720;SDS011;9489;50.948;3.114;2023-02-28T14:06:08;3.50;;;3.28;;
18720;SDS011;9489;50.948;3.114;2023-02-28T14:08:35;3.55;;;3.25;;
18720;SDS011;9489;50.948;3.114;2023-02-28T14:11:06;4.35;;;3.70;;
18720;SDS011;9489;50.948;3.114;2023-02-28T14:13:48;3.53;;;3.22;;
18720;SDS011;9489;50.948;3.114;2023-02-28T14:16:14;3.80;;;2.97;;
18720;SDS011;9489;50.948;3.114;2023-02-28T14:18:49;5.30;;;3.17;;
18720;SDS011;9489;50.948;3.114;2023-02-28T14:21:21;3.55;;;2.72;;
18720;SDS011;9489;50.948;3.114;2023-02-28T14:29:43;2.90;;;2.38;;
18720;SDS011;9489;50.948;3.114;2023-02-28T14:32:22;3.97;;;2.97;;
18720;SDS011;9489;50.948;3.114;2023-02-28T14:38:13;2.72;;;2.53;;
18720;SDS011;9489;50.948;3.114;2023-02-28T14:40:43;4.55;;;2.80;;
18720;SDS011;9489;50.948;3.114;2023-02-28T14:43:24;3.25;;;2.92;;
18720;SDS011;9489;50.948;3.114;2023-02-28T14:45:52;3.22;;;2.90;;
18720;SDS011;9489;50.948;3.114;2023-02-28T14:48:24;3.88;;;2.95;;
18720;SDS011;9489;50.948;3.114;2023-02-28T14:50:52;2.92;;;2.72;;
18720;SDS011;9489;50.948;3.114;2023-02-28T14:53:21;4.70;;;3.13;;
18720;SDS011;9489;50.948;3.114;2023-02-28T14:55:49;4.55;;;3.35;;
18720;SDS011;9489;50.948;3.114;2023-02-28T15:00:49;3.45;;;3.15;;
18720;SDS011;9489;50.948;3.114;2023-02-28T15:03:36;3.13;;;2.83;;
18720;SDS011;9489;50.948;3.114;2023-02-28T15:06:04;4.20;;;2.90;;
18720;SDS011;9489;50.948;3.114;2023-02-28T15:08:37;5.18;;;3.63;;
18720;SDS011;9489;50.948;3.114;2023-02-28T15:11:04;3.50;;;3.20;;
18720;SDS011;9489;50.948;3.114;2023-02-28T15:13:39;4.53;;;3.13;;
18720;SDS011;9489;50.948;3.114;2023-02-28T15:16:17;12.77;;;4.22;;
18720;SDS011;9489;50.948;3.114;2023-02-28T15:19:04;3.28;;;3.08;;
18720;SDS011;9489;50.948;3.114;2023-02-28T15:21:37;3.40;;;3.10;;
18720;SDS011;9489;50.948;3.114;2023-02-28T15:24:07;3.75;;;3.00;;
18720;SDS011;9489;50.948;3.114;2023-02-28T15:26:49;4.47;;;3.20;;
18720;SDS011;9489;50.948;3.114;2023-02-28T15:29:20;2.90;;;2.70;;
18720;SDS011;9489;50.948;3.114;2023-02-28T15:31:48;3.75;;;3.13;;
18720;SDS011;9489;50.948;3.114;2023-02-28T15:34:25;3.65;;;2.95;;
18720;SDS011;9489;50.948;3.114;2023-02-28T15:36:58;6.25;;;3.38;;
18720;SDS011;9489;50.948;3.114;2023-02-28T15:39:24;3.28;;;2.97;;
18720;SDS011;9489;50.948;3.114;2023-02-28T15:41:52;3.55;;;3.25;;
18720;SDS011;9489;50.948;3.114;2023-02-28T15:44:34;2.75;;;2.55;;
18720;SDS011;9489;50.948;3.114;2023-02-28T15:47:07;3.05;;;2.80;;
18720;SDS011;9489;50.948;3.114;2023-02-28T15:49:47;3.60;;;2.88;;
18720;SDS011;9489;50.948;3.114;2023-02-28T15:52:19;3.10;;;2.80;;
18720;SDS011;9489;50.948;3.114;2023-02-28T15:54:53;3.75;;;3.45;;
18720;SDS011;9489;50.948;3.114;2023-02-28T15:57:23;3.05;;;2.85;;
18720;SDS011;9489;50.948;3.114;2023-02-28T15:59:55;3.50;;;3.10;;
18720;SDS011;9489;50.948;3.114;2023-02-28T16:02:30;3.15;;;2.80;;
18720;SDS011;9489;50.948;3.114;2023-02-28T16:07:36;3.50;;;3.20;;
18720;SDS011;9489;50.948;3.114;2023-02-28T16:10:08;3.28;;;3.05;;
18720;SDS011;9489;50.948;3.114;2023-02-28T16:12:36;4.10;;;3.67;;
18720;SDS011;9489;50.948;3.114;2023-02-28T16:15:07;3.95;;;3.58;;
18720;SDS011;9489;50.948;3.114;2023-02-28T16:17:46;5.20;;;3.63;;
18720;SDS011;9489;50.948;3.114;2023-02-28T16:20:17;4.32;;;3.92;;
18720;SDS011;9489;50.948;3.114;2023-02-28T16:22:46;5.65;;;3.50;;
18720;SDS011;9489;50.948;3.114;2023-02-28T16:25:13;6.05;;;4.13;;
18720;SDS011;9489;50.948;3.114;2023-02-28T16:27:40;6.20;;;4.47;;
18720;SDS011;9489;50.948;3.114;2023-02-28T16:30:06;5.10;;;4.57;;
18720;SDS011;9489;50.948;3.114;2023-02-28T16:32:40;4.60;;;3.97;;
18720;SDS011;9489;50.948;3.114;2023-02-28T16:35:09;4.30;;;4.00;;
18720;SDS011;9489;50.948;3.114;2023-02-28T16:37:36;6.53;;;4.78;;
18720;SDS011;9489;50.948;3.114;2023-02-28T16:40:02;4.93;;;4.30;;
18720;SDS011;9489;50.948;3.114;2023-02-28T16:42:28;4.90;;;4.03;;
18720;SDS011;9489;50.948;3.114;2023-02-28T16:44:55;6.22;;;4.50;;
18720;SDS011;9489;50.948;3.114;2023-02-28T16:47:22;4.78;;;4.38;;
18720;SDS011;9489;50.948;3.114;2023-02-28T16:49:49;5.10;;;4.30;;
18720;SDS011;9489;50.948;3.114;2023-02-28T16:52:15;4.55;;;4.13;;
18720;SDS011;9489;50.948;3.114;2023-02-28T16:54:41;6.13;;;5.60;;
18720;SDS011;9489;50.948;3.114;2023-02-28T16:57:11;4.53;;;4.07;;
18720;SDS011;9489;50.948;3.114;2023-02-28T16:59:44;6.60;;;4.60;;
18720;SDS011;9489;50.948;3.114;2023-02-28T17:02:11;4.90;;;4.40;;
18720;SDS011;9489;50.948;3.114;2023-02-28T17:04:40;5.22;;;4.72;;
18720;SDS011;9489;50.948;3.114;2023-02-28T17:07:08;5.35;;;4.60;;
18720;SDS011;9489;50.948;3.114;2023-02-28T17:09:37;6.28;;;4.63;;
18720;SDS011;9489;50.948;3.114;2023-02-28T17:14:32;5.70;;;4.68;;
18720;SDS011;9489;50.948;3.114;2023-02-28T17:16:58;5.55;;;5.15;;
18720;SDS011;9489;50.948;3.114;2023-02-28T17:19:23;5.53;;;5.03;;
18720;SDS011;9489;50.948;3.114;2023-02-28T17:21:49;6.15;;;5.60;;
18720;SDS011;9489;50.948;3.114;2023-02-28T17:24:14;5.32;;;4.93;;
18720;SDS011;9489;50.948;3.114;2023-02-28T17:26:40;8.18;;;6.65;;
18720;SDS011;9489;50.948;3.114;2023-02-28T17:29:14;5.32;;;4.85;;
18720;SDS011;9489;50.948;3.114;2023-02-28T17:31:41;7.13;;;5.88;;
18720;SDS011;9489;50.948;3.114;2023-02-28T17:34:06;8.15;;;7.45;;